sensor_id;sensor_type;location;lat;lon;timestamp;P1;durP1;ratioP1;P2;durP2;ratioP2
70363;SDS011;57785;43.898;1.886;2022-10-16T06:08:23;11.23;;;7.97;;
70363;SDS011;57785;43.898;1.886;2022-10-16T06:10:59;12.55;;;8.27;;
70363;SDS011;57785;43.898;1.886;2022-10-16T06:13:25;14.45;;;9.02;;
70363;SDS011;57785;43.898;1.886;2022-10-16T06:15:51;10.70;;;7.75;;
70363;SDS011;57785;43.898;1.886;2022-10-16T06:18:17;11.45;;;7.65;;
70363;SDS011;57785;43.898;1.886;2022-10-16T06:20:44;11.40;;;7.38;;
70363;SDS011;57785;43.898;1.886;2022-10-16T06:23:10;9.23;;;7.07;;
70363;SDS011;57785;43.898;1.886;2022-10-16T06:25:36;11.68;;;7.20;;
70363;SDS011;57785;43.898;1.886;2022-10-16T06:28:02;10.93;;;6.88;;
70363;SDS011;57785;43.898;1.886;2022-10-16T06:30:28;12.48;;;7.03;;
70363;SDS011;57785;43.898;1.886;2022-10-16T06:32:54;10.38;;;7.18;;
70363;SDS011;57785;43.898;1.886;2022-10-16T06:35:20;8.95;;;6.57;;
70363;SDS011;57785;43.898;1.886;2022-10-16T06:37:46;7.90;;;6.32;;
70363;SDS011;57785;43.898;1.886;2022-10-16T06:40:13;9.35;;;6.57;;
70363;SDS011;57785;43.898;1.886;2022-10-16T06:42:39;10.35;;;6.60;;
70363;SDS011;57785;43.898;1.886;2022-10-16T06:45:05;8.45;;;6.55;;
70363;SDS011;57785;43.898;1.886;2022-10-16T06:47:32;11.15;;;6.60;;
70363;SDS011;57785;43.898;1.886;2022-10-16T06:49:58;10.93;;;6.60;;
70363;SDS011;57785;43.898;1.886;2022-10-16T06:52:24;9.55;;;5.85;;
70363;SDS011;57785;43.898;1.886;2022-10-16T06:54:50;9.27;;;6.78;;
70363;SDS011;57785;43.898;1.886;2022-10-16T06:57:16;8.27;;;6.63;;
70363;SDS011;57785;43.898;1.886;2022-10-16T06:59:42;8.23;;;6.43;;
70363;SDS011;57785;43.898;1.886;2022-10-16T07:02:08;8.52;;;6.30;;
70363;SDS011;57785;43.898;1.886;2022-10-16T07:04:35;9.88;;;6.82;;
70363;SDS011;57785;43.898;1.886;2022-10-16T07:07:01;9.38;;;6.72;;
70363;SDS011;57785;43.898;1.886;2022-10-16T07:09:27;8.27;;;6.72;;
70363;SDS011;57785;43.898;1.886;2022-10-16T07:11:53;8.40;;;6.15;;
70363;SDS011;57785;43.898;1.886;2022-10-16T07:14:20;11.38;;;6.30;;
70363;SDS011;57785;43.898;1.886;2022-10-16T07:16:46;6.60;;;5.78;;
70363;SDS011;57785;43.898;1.886;2022-10-16T07:19:12;8.68;;;6.15;;
70363;SDS011;57785;43.898;1.886;2022-10-16T07:21:40;9.35;;;6.35;;
70363;SDS011;57785;43.898;1.886;2022-10-16T07:24:07;11.95;;;6.45;;
70363;SDS011;57785;43.898;1.886;2022-10-16T07:26:36;10.15;;;6.47;;
70363;SDS011;57785;43.898;1.886;2022-10-16T07:29:04;8.60;;;6.15;;
70363;SDS011;57785;43.898;1.886;2022-10-16T07:31:30;9.35;;;6.07;;
70363;SDS011;57785;43.898;1.886;2022-10-16T07:33:57;8.32;;;6.28;;
70363;SDS011;57785;43.898;1.886;2022-10-16T07:36:23;8.35;;;6.38;;
70363;SDS011;57785;43.898;1.886;2022-10-16T07:38:50;10.05;;;5.75;;
70363;SDS011;57785;43.898;1.886;2022-10-16T07:41:17;10.25;;;5.57;;
70363;SDS011;57785;43.898;1.886;2022-10-16T07:43:47;8.95;;;6.15;;
70363;SDS011;57785;43.898;1.886;2022-10-16T07:46:13;10.20;;;5.97;;
70363;SDS011;57785;43.898;1.886;2022-10-16T07:48:39;8.10;;;5.57;;
70363;SDS011;57785;43.898;1.886;2022-10-16T07:51:06;8.98;;;5.57;;
70363;SDS011;57785;43.898;1.886;2022-10-16T16:53:36;5.45;;;2.20;;
70363;SDS011;57785;43.898;1.886;2022-10-16T16:56:02;7.40;;;2.50;;
70363;SDS011;57785;43.898;1.886;2022-10-16T16:58:29;7.90;;;2.38;;
70363;SDS011;57785;43.898;1.886;2022-10-16T17:00:55;8.48;;;2.38;;
70363;SDS011;57785;43.898;1.886;2022-10-16T17:03:21;4.97;;;2.20;;
70363;SDS011;57785;43.898;1.886;2022-10-16T17:06:00;7.63;;;2.17;;
70363;SDS011;57785;43.898;1.886;2022-10-16T17:08:27;7.30;;;2.42;;
70363;SDS011;57785;43.898;1.886;2022-10-16T17:10:54;13.80;;;2.63;;
70363;SDS011;57785;43.898;1.886;2022-10-16T17:13:27;4.68;;;2.38;;
70363;SDS011;57785;43.898;1.886;2022-10-16T17:15:53;4.63;;;2.10;;
70363;SDS011;57785;43.898;1.886;2022-10-16T17:18:20;7.00;;;2.30;;
70363;SDS011;57785;43.898;1.886;2022-10-16T17:20:47;6.35;;;2.20;;
70363;SDS011;57785;43.898;1.886;2022-10-16T17:23:13;9.13;;;2.53;;
70363;SDS011;57785;43.898;1.886;2022-10-16T17:25:40;6.65;;;2.33;;
70363;SDS011;57785;43.898;1.886;2022-10-16T17:28:07;8.35;;;2.10;;
70363;SDS011;57785;43.898;1.886;2022-10-16T17:30:33;7.03;;;2.25;;
70363;SDS011;57785;43.898;1.886;2022-10-16T17:33:03;6.15;;;2.30;;
70363;SDS011;57785;43.898;1.886;2022-10-16T17:35:29;10.20;;;2.55;;
70363;SDS011;57785;43.898;1.886;2022-10-16T17:37:55;7.07;;;2.17;;
70363;SDS011;57785;43.898;1.886;2022-10-16T17:40:21;6.22;;;2.10;;
70363;SDS011;57785;43.898;1.886;2022-10-16T17:42:47;6.70;;;2.28;;
70363;SDS011;57785;43.898;1.886;2022-10-16T17:45:13;7.93;;;2.35;;
70363;SDS011;57785;43.898;1.886;2022-10-16T17:47:40;5.75;;;2.38;;
70363;SDS011;57785;43.898;1.886;2022-10-16T17:50:07;5.53;;;2.20;;
70363;SDS011;57785;43.898;1.886;2022-10-16T17:52:33;10.23;;;2.10;;
70363;SDS011;57785;43.898;1.886;2022-10-16T17:54:59;7.60;;;2.20;;
70363;SDS011;57785;43.898;1.886;2022-10-16T17:57:25;7.53;;;2.10;;
70363;SDS011;57785;43.898;1.886;2022-10-16T17:59:53;5.47;;;2.00;;
70363;SDS011;57785;43.898;1.886;2022-10-16T18:02:19;8.32;;;2.38;;
70363;SDS011;57785;43.898;1.886;2022-10-16T18:04:45;7.18;;;2.42;;
70363;SDS011;57785;43.898;1.886;2022-10-16T18:07:11;8.38;;;2.10;;
70363;SDS011;57785;43.898;1.886;2022-10-16T18:09:37;10.27;;;2.30;;
70363;SDS011;57785;43.898;1.886;2022-10-16T18:12:03;6.53;;;2.33;;
70363;SDS011;57785;43.898;1.886;2022-10-16T18:14:30;6.70;;;2.20;;
70363;SDS011;57785;43.898;1.886;2022-10-16T18:16:56;8.05;;;2.22;;
70363;SDS011;57785;43.898;1.886;2022-10-16T18:19:23;12.20;;;2.33;;
70363;SDS011;57785;43.898;1.886;2022-10-16T18:21:49;7.38;;;2.42;;
70363;SDS011;57785;43.898;1.886;2022-10-16T18:24:16;9.35;;;2.30;;
70363;SDS011;57785;43.898;1.886;2022-10-16T18:26:43;4.95;;;2.00;;
70363;SDS011;57785;43.898;1.886;2022-10-16T18:29:09;5.32;;;2.30;;
70363;SDS011;57785;43.898;1.886;2022-10-16T18:31:36;6.45;;;2.10;;
70363;SDS011;57785;43.898;1.886;2022-10-16T18:34:02;4.90;;;2.35;;
70363;SDS011;57785;43.898;1.886;2022-10-16T18:36:29;9.23;;;2.33;;
70363;SDS011;57785;43.898;1.886;2022-10-16T18:38:57;7.80;;;2.00;;
70363;SDS011;57785;43.898;1.886;2022-10-16T18:41:24;5.65;;;2.25;;
70363;SDS011;57785;43.898;1.886;2022-10-16T18:43:50;8.82;;;2.20;;
70363;SDS011;57785;43.898;1.886;2022-10-16T18:46:17;4.70;;;2.10;;
70363;SDS011;57785;43.898;1.886;2022-10-16T18:48:43;6.85;;;2.28;;
70363;SDS011;57785;43.898;1.886;2022-10-16T18:53:37;5.70;;;2.15;;
70363;SDS011;57785;43.898;1.886;2022-10-16T18:56:03;5.40;;;2.00;;
70363;SDS011;57785;43.898;1.886;2022-10-16T18:58:29;6.93;;;2.10;;
70363;SDS011;57785;43.898;1.886;2022-10-16T19:00:55;5.40;;;1.90;;
70363;SDS011;57785;43.898;1.886;2022-10-16T19:03:27;7.65;;;2.13;;
70363;SDS011;57785;43.898;1.886;2022-10-16T19:05:53;7.35;;;2.30;;
70363;SDS011;57785;43.898;1.886;2022-10-16T19:08:19;10.40;;;2.10;;
70363;SDS011;57785;43.898;1.886;2022-10-16T19:10:45;8.63;;;2.30;;
70363;SDS011;57785;43.898;1.886;2022-10-16T19:13:11;8.43;;;2.42;;
70363;SDS011;57785;43.898;1.886;2022-10-16T19:15:41;8.40;;;2.25;;
70363;SDS011;57785;43.898;1.886;2022-10-16T19:18:07;7.20;;;2.63;;
70363;SDS011;57785;43.898;1.886;2022-10-16T19:20:34;6.75;;;2.58;;
70363;SDS011;57785;43.898;1.886;2022-10-16T19:23:00;8.02;;;2.20;;
70363;SDS011;57785;43.898;1.886;2022-10-16T19:25:26;6.28;;;2.45;;
70363;SDS011;57785;43.898;1.886;2022-10-16T19:27:53;7.88;;;2.38;;
70363;SDS011;57785;43.898;1.886;2022-10-16T19:30:19;7.60;;;2.50;;
70363;SDS011;57785;43.898;1.886;2022-10-16T19:32:47;9.02;;;2.40;;
70363;SDS011;57785;43.898;1.886;2022-10-16T19:35:13;6.88;;;2.25;;
70363;SDS011;57785;43.898;1.886;2022-10-16T19:37:40;6.50;;;2.20;;
70363;SDS011;57785;43.898;1.886;2022-10-16T19:40:06;9.85;;;2.28;;
70363;SDS011;57785;43.898;1.886;2022-10-16T19:42:33;9.00;;;2.60;;
70363;SDS011;57785;43.898;1.886;2022-10-16T19:45:00;6.38;;;2.28;;
70363;SDS011;57785;43.898;1.886;2022-10-16T19:47:26;7.60;;;2.20;;
70363;SDS011;57785;43.898;1.886;2022-10-16T19:49:52;6.45;;;2.25;;
70363;SDS011;57785;43.898;1.886;2022-10-16T19:52:18;5.78;;;2.08;;
70363;SDS011;57785;43.898;1.886;2022-10-16T19:54:46;7.07;;;2.17;;
70363;SDS011;57785;43.898;1.886;2022-10-16T19:57:12;7.80;;;2.20;;
70363;SDS011;57785;43.898;1.886;2022-10-16T19:59:38;5.13;;;2.03;;
70363;SDS011;57785;43.898;1.886;2022-10-16T20:02:04;8.70;;;2.38;;
70363;SDS011;57785;43.898;1.886;2022-10-16T20:04:30;9.32;;;2.40;;
70363;SDS011;57785;43.898;1.886;2022-10-16T20:06:56;7.22;;;2.30;;
70363;SDS011;57785;43.898;1.886;2022-10-16T20:09:23;6.63;;;2.35;;
70363;SDS011;57785;43.898;1.886;2022-10-16T20:11:49;6.53;;;2.17;;
70363;SDS011;57785;43.898;1.886;2022-10-16T20:14:15;6.95;;;2.33;;
70363;SDS011;57785;43.898;1.886;2022-10-16T20:16:41;9.65;;;2.38;;
70363;SDS011;57785;43.898;1.886;2022-10-16T20:19:07;11.27;;;3.55;;
70363;SDS011;57785;43.898;1.886;2022-10-16T20:21:33;9.75;;;2.80;;
70363;SDS011;57785;43.898;1.886;2022-10-16T20:24:00;9.20;;;2.63;;
70363;SDS011;57785;43.898;1.886;2022-10-16T20:26:28;7.55;;;2.05;;
70363;SDS011;57785;43.898;1.886;2022-10-16T20:28:54;7.00;;;2.20;;
70363;SDS011;57785;43.898;1.886;2022-10-16T20:31:23;10.50;;;2.20;;
70363;SDS011;57785;43.898;1.886;2022-10-16T20:33:50;9.40;;;2.75;;
70363;SDS011;57785;43.898;1.886;2022-10-16T20:36:17;10.23;;;2.47;;
70363;SDS011;57785;43.898;1.886;2022-10-16T20:38:43;7.72;;;2.60;;
70363;SDS011;57785;43.898;1.886;2022-10-16T20:41:10;6.50;;;2.38;;
70363;SDS011;57785;43.898;1.886;2022-10-16T20:43:38;6.93;;;2.35;;
70363;SDS011;57785;43.898;1.886;2022-10-16T20:46:05;9.13;;;2.63;;
70363;SDS011;57785;43.898;1.886;2022-10-16T20:48:35;9.43;;;2.72;;
70363;SDS011;57785;43.898;1.886;2022-10-16T20:56:03;8.00;;;2.67;;
70363;SDS011;57785;43.898;1.886;2022-10-16T20:58:29;10.80;;;2.88;;
70363;SDS011;57785;43.898;1.886;2022-10-16T21:00:55;8.20;;;2.60;;
70363;SDS011;57785;43.898;1.886;2022-10-16T21:03:28;10.85;;;2.75;;
70363;SDS011;57785;43.898;1.886;2022-10-16T21:05:55;9.20;;;2.60;;
70363;SDS011;57785;43.898;1.886;2022-10-16T21:08:21;10.23;;;2.83;;
70363;SDS011;57785;43.898;1.886;2022-10-16T21:10:47;7.10;;;2.40;;
70363;SDS011;57785;43.898;1.886;2022-10-16T21:13:13;9.65;;;2.55;;
70363;SDS011;57785;43.898;1.886;2022-10-16T21:15:39;6.90;;;2.60;;
70363;SDS011;57785;43.898;1.886;2022-10-16T21:18:05;10.60;;;2.33;;
70363;SDS011;57785;43.898;1.886;2022-10-16T21:20:31;10.50;;;2.90;;
70363;SDS011;57785;43.898;1.886;2022-10-16T21:22:57;10.70;;;2.60;;
70363;SDS011;57785;43.898;1.886;2022-10-16T21:25:23;5.03;;;2.35;;
70363;SDS011;57785;43.898;1.886;2022-10-16T21:27:50;12.00;;;2.80;;
70363;SDS011;57785;43.898;1.886;2022-10-16T21:30:16;8.07;;;2.60;;
70363;SDS011;57785;43.898;1.886;2022-10-16T21:32:42;10.77;;;2.65;;
70363;SDS011;57785;43.898;1.886;2022-10-16T21:35:08;9.65;;;2.25;;
70363;SDS011;57785;43.898;1.886;2022-10-16T21:37:34;8.80;;;2.80;;
70363;SDS011;57785;43.898;1.886;2022-10-16T21:40:00;8.00;;;2.42;;
70363;SDS011;57785;43.898;1.886;2022-10-16T21:42:26;10.90;;;2.78;;
70363;SDS011;57785;43.898;1.886;2022-10-16T21:44:52;9.85;;;2.90;;
70363;SDS011;57785;43.898;1.886;2022-10-16T21:47:18;6.55;;;2.38;;
70363;SDS011;57785;43.898;1.886;2022-10-16T21:49:44;8.32;;;2.55;;
70363;SDS011;57785;43.898;1.886;2022-10-16T21:52:11;8.25;;;2.53;;
70363;SDS011;57785;43.898;1.886;2022-10-16T21:54:37;8.70;;;2.70;;
70363;SDS011;57785;43.898;1.886;2022-10-16T21:57:03;7.75;;;2.53;;
70363;SDS011;57785;43.898;1.886;2022-10-16T21:59:29;11.43;;;2.70;;
70363;SDS011;57785;43.898;1.886;2022-10-16T22:01:55;10.40;;;2.90;;
70363;SDS011;57785;43.898;1.886;2022-10-16T22:04:21;9.25;;;2.60;;
70363;SDS011;57785;43.898;1.886;2022-10-16T22:06:47;11.95;;;3.13;;
70363;SDS011;57785;43.898;1.886;2022-10-16T22:09:13;10.13;;;3.08;;
70363;SDS011;57785;43.898;1.886;2022-10-16T22:11:41;9.27;;;2.70;;
70363;SDS011;57785;43.898;1.886;2022-10-16T22:14:12;7.28;;;2.42;;
70363;SDS011;57785;43.898;1.886;2022-10-16T22:16:38;10.18;;;2.70;;
70363;SDS011;57785;43.898;1.886;2022-10-16T22:19:06;7.00;;;2.28;;
70363;SDS011;57785;43.898;1.886;2022-10-16T22:21:33;8.68;;;2.70;;
70363;SDS011;57785;43.898;1.886;2022-10-16T22:23:59;7.78;;;2.58;;
70363;SDS011;57785;43.898;1.886;2022-10-16T22:26:25;8.80;;;2.55;;
70363;SDS011;57785;43.898;1.886;2022-10-16T22:28:51;9.18;;;2.95;;
70363;SDS011;57785;43.898;1.886;2022-10-16T22:31:17;7.68;;;2.60;;
70363;SDS011;57785;43.898;1.886;2022-10-16T22:33:45;6.25;;;2.35;;
70363;SDS011;57785;43.898;1.886;2022-10-16T22:36:11;9.10;;;2.42;;
70363;SDS011;57785;43.898;1.886;2022-10-16T22:38:38;10.25;;;2.83;;
70363;SDS011;57785;43.898;1.886;2022-10-16T22:41:05;9.85;;;2.40;;
70363;SDS011;57785;43.898;1.886;2022-10-16T22:43:33;8.48;;;2.47;;
70363;SDS011;57785;43.898;1.886;2022-10-16T22:46:01;6.93;;;2.20;;
70363;SDS011;57785;43.898;1.886;2022-10-16T22:48:27;8.20;;;2.30;;
70363;SDS011;57785;43.898;1.886;2022-10-16T22:50:53;7.43;;;2.55;;
70363;SDS011;57785;43.898;1.886;2022-10-16T22:53:19;9.70;;;2.30;;
70363;SDS011;57785;43.898;1.886;2022-10-16T22:55:45;10.98;;;2.60;;
70363;SDS011;57785;43.898;1.886;2022-10-16T22:58:11;13.23;;;2.63;;
70363;SDS011;57785;43.898;1.886;2022-10-16T23:00:39;8.93;;;2.42;;
70363;SDS011;57785;43.898;1.886;2022-10-16T23:03:06;8.00;;;2.35;;
70363;SDS011;57785;43.898;1.886;2022-10-16T23:05:32;10.40;;;2.38;;
